createdAt,value
2022-11-15T00:00:53.947Z,28.43
2022-11-15T00:03:24.100Z,28.27
2022-11-15T00:05:51.320Z,24.07
2022-11-15T00:08:18.288Z,31.63
2022-11-15T00:10:55.535Z,24.13
2022-11-15T00:13:22.139Z,27.67
2022-11-15T00:15:48.739Z,24.70
2022-11-15T00:18:15.913Z,24.40
2022-11-15T00:20:42.890Z,25.70
2022-11-15T00:23:10.202Z,28.10
2022-11-15T00:25:36.883Z,27.47
2022-11-15T00:28:04.235Z,28.00
2022-11-15T00:30:31.087Z,28.97
2022-11-15T00:32:57.762Z,36.97
2022-11-15T00:35:24.596Z,29.77
2022-11-15T00:37:53.669Z,26.67
2022-11-15T00:40:20.265Z,30.50
2022-11-15T00:42:46.873Z,27.13
2022-11-15T00:45:13.467Z,25.17
2022-11-15T00:47:40.059Z,30.50
2022-11-15T00:50:06.975Z,28.53
2022-11-15T00:52:33.596Z,34.33
2022-11-15T00:55:00.320Z,35.23
2022-11-15T00:57:26.904Z,31.63
2022-11-15T00:59:53.700Z,33.07
2022-11-15T01:02:20.436Z,32.53
2022-11-15T01:04:47.039Z,31.00
2022-11-15T01:07:14.173Z,29.20
2022-11-15T01:09:40.926Z,31.63
2022-11-15T01:12:07.682Z,30.50
2022-11-15T01:14:34.316Z,35.03
2022-11-15T01:17:00.940Z,34.27
2022-11-15T01:19:27.593Z,28.17
2022-11-15T01:21:54.241Z,33.67
2022-11-15T01:24:20.817Z,33.57
2022-11-15T01:26:47.441Z,31.10
2022-11-15T01:29:14.034Z,29.53
2022-11-15T01:31:40.675Z,26.63
2022-11-15T01:34:07.345Z,29.47
2022-11-15T01:36:33.984Z,25.40
2022-11-15T01:39:00.764Z,27.67
2022-11-15T01:41:34.130Z,27.20
2022-11-15T01:44:31.625Z,29.87
2022-11-15T01:47:02.484Z,21.87
2022-11-15T01:49:34.016Z,26.13
2022-11-15T01:52:04.326Z,21.03
2022-11-15T01:54:31.996Z,25.20
2022-11-15T01:57:08.202Z,27.23
2022-11-15T01:59:35.037Z,28.40
2022-11-15T02:02:02.049Z,28.57
2022-11-15T02:04:40.592Z,33.97
2022-11-15T02:07:10.969Z,20.60
2022-11-15T02:09:38.675Z,28.93
2022-11-15T02:12:07.407Z,20.97
2022-11-15T02:14:34.670Z,25.10
2022-11-15T02:17:10.403Z,29.47
2022-11-15T02:19:55.696Z,24.90
2022-11-15T02:22:46.911Z,26.27
2022-11-15T02:25:19.236Z,23.27
2022-11-15T02:27:48.574Z,25.33
2022-11-15T02:30:28.319Z,23.83
2022-11-15T02:33:32.942Z,24.00
2022-11-15T02:35:59.791Z,24.83
2022-11-15T02:38:47.823Z,19.73
2022-11-15T02:41:18.157Z,22.63
2022-11-15T02:44:00.223Z,20.80
2022-11-15T02:46:55.630Z,18.50
2022-11-15T02:49:24.146Z,22.60
2022-11-15T02:51:53.389Z,25.93
2022-11-15T02:54:27.189Z,32.23
2022-11-15T02:56:57.015Z,24.23
2022-11-15T02:59:40.716Z,25.70
2022-11-15T03:02:28.937Z,29.23
2022-11-15T03:05:06.099Z,29.43
2022-11-15T03:08:10.678Z,26.80
2022-11-15T03:10:51.727Z,26.10
2022-11-15T03:13:32.278Z,30.07
2022-11-15T03:16:03.877Z,26.73
2022-11-15T03:18:36.886Z,23.70
2022-11-15T03:21:07.843Z,29.30
2022-11-15T03:23:37.012Z,32.07
2022-11-15T03:26:08.169Z,30.97
2022-11-15T03:28:39.986Z,34.53
2022-11-15T03:31:27.685Z,40.17
2022-11-15T03:33:58.319Z,33.73
2022-11-15T03:36:26.161Z,33.33
2022-11-15T03:38:57.676Z,29.00
2022-11-15T03:41:36.285Z,35.43
2022-11-15T03:44:13.217Z,28.60
2022-11-15T03:46:49.366Z,35.87
2022-11-15T03:49:23.544Z,28.60
2022-11-15T03:51:50.142Z,26.73
2022-11-15T03:54:16.867Z,29.07
2022-11-15T03:56:43.424Z,26.53
2022-11-15T03:59:11.094Z,41.90
2022-11-15T04:01:37.789Z,34.57
2022-11-15T04:04:04.535Z,44.93
2022-11-15T04:06:31.123Z,40.70
2022-11-15T04:08:57.729Z,52.70
2022-11-15T04:11:24.366Z,68.00
2022-11-15T04:13:50.989Z,51.93
2022-11-15T04:16:17.640Z,103.30
2022-11-15T04:18:44.308Z,57.23
2022-11-15T04:21:29.651Z,41.53
2022-11-15T04:24:14.877Z,53.60
2022-11-15T04:26:41.537Z,36.23
2022-11-15T04:29:40.733Z,28.53
2022-11-15T04:32:08.100Z,27.73
2022-11-15T04:34:35.370Z,40.63
2022-11-15T04:37:14.106Z,52.30
2022-11-15T04:39:41.727Z,23.00
2022-11-15T04:42:11.721Z,30.27
2022-11-15T04:44:38.520Z,40.00
2022-11-15T04:47:05.454Z,31.07
2022-11-15T04:49:32.087Z,38.43
2022-11-15T04:51:58.787Z,41.67
2022-11-15T04:54:25.458Z,39.83
2022-11-15T04:56:52.074Z,44.10
2022-11-15T04:59:18.790Z,37.73
2022-11-15T05:01:45.534Z,36.07
2022-11-15T05:04:22.601Z,35.87
2022-11-15T05:06:51.533Z,47.97
2022-11-15T05:09:25.598Z,36.53
2022-11-15T05:11:58.464Z,20.80
2022-11-15T05:14:25.642Z,24.43
2022-11-15T05:16:52.288Z,33.03
2022-11-15T05:19:18.847Z,44.63
2022-11-15T05:21:45.404Z,62.40
2022-11-15T05:24:12.334Z,39.87
2022-11-15T05:26:38.953Z,39.43
2022-11-15T05:29:05.588Z,56.97
2022-11-15T05:31:34.404Z,34.50
2022-11-15T05:34:06.778Z,34.83
2022-11-15T05:36:47.194Z,53.63
2022-11-15T05:39:13.898Z,32.23
2022-11-15T05:41:53.917Z,57.00
2022-11-15T05:44:23.613Z,60.00
2022-11-15T05:46:54.564Z,38.27
2022-11-15T05:49:24.831Z,59.23
2022-11-15T05:51:53.083Z,48.60
2022-11-15T05:54:22.571Z,47.30
2022-11-15T05:56:50.069Z,58.63
2022-11-15T05:59:17.865Z,69.67
2022-11-15T06:01:44.584Z,42.33
2022-11-15T06:04:11.301Z,46.87
2022-11-15T06:06:37.907Z,62.33
2022-11-15T06:09:04.533Z,46.00
2022-11-15T06:11:31.115Z,39.70
2022-11-15T06:13:57.668Z,45.00
2022-11-15T06:16:24.315Z,47.33
2022-11-15T06:18:50.911Z,60.00
2022-11-15T06:21:17.481Z,43.30
2022-11-15T06:23:44.086Z,52.77
2022-11-15T06:26:10.675Z,34.77
2022-11-15T06:28:37.347Z,38.63
2022-11-15T06:31:09.742Z,38.50
2022-11-15T06:33:36.511Z,40.50
2022-11-15T06:36:11.969Z,39.83
2022-11-15T06:38:41.263Z,30.20
2022-11-15T06:41:10.416Z,35.33
2022-11-15T06:43:37.607Z,28.80
2022-11-15T06:46:05.587Z,29.90
2022-11-15T06:48:33.821Z,27.43
2022-11-15T06:51:02.151Z,26.37
2022-11-15T06:53:30.861Z,27.00
2022-11-15T06:56:06.087Z,30.10
2022-11-15T06:58:32.794Z,32.60
2022-11-15T07:01:02.764Z,38.07
2022-11-15T07:03:29.735Z,30.70
2022-11-15T07:06:02.701Z,34.90
2022-11-15T07:08:33.691Z,33.13
2022-11-15T07:11:02.815Z,28.97
2022-11-15T07:13:34.330Z,36.03
2022-11-15T07:16:06.899Z,39.00
2022-11-15T07:18:38.363Z,34.00
2022-11-15T07:21:06.778Z,36.97
2022-11-15T07:23:34.167Z,38.47
2022-11-15T07:26:02.719Z,38.67
2022-11-15T07:28:29.410Z,41.90
2022-11-15T07:30:56.227Z,36.37
2022-11-15T07:33:23.023Z,37.63
2022-11-15T07:35:49.584Z,49.07
2022-11-15T07:38:20.562Z,52.53
2022-11-15T07:40:47.836Z,45.57
2022-11-15T07:43:14.641Z,54.27
2022-11-15T07:45:46.013Z,45.50
2022-11-15T07:48:13.174Z,44.87
2022-11-15T07:50:43.402Z,40.60
2022-11-15T07:53:11.574Z,56.07
2022-11-15T07:55:38.634Z,42.27
2022-11-15T07:58:10.877Z,49.20
2022-11-15T08:00:38.476Z,40.67
2022-11-15T08:03:09.318Z,40.67
2022-11-15T08:05:37.145Z,44.23
2022-11-15T08:08:04.574Z,34.90
2022-11-15T08:10:32.603Z,38.70
2022-11-15T08:13:04.581Z,37.63
2022-11-15T08:15:31.867Z,40.97
2022-11-15T08:18:00.233Z,42.83
2022-11-15T08:20:30.748Z,37.83
2022-11-15T08:23:02.292Z,49.40
2022-11-15T08:25:30.411Z,41.77
2022-11-15T08:27:59.437Z,38.53
2022-11-15T08:30:26.451Z,42.10
2022-11-15T08:32:54.353Z,35.87
2022-11-15T08:35:26.299Z,44.93
2022-11-15T08:37:55.812Z,50.27
2022-11-15T08:40:23.791Z,42.20
2022-11-15T08:42:50.448Z,45.57
2022-11-15T08:45:17.244Z,43.10
2022-11-15T08:47:43.964Z,51.67
2022-11-15T08:50:10.936Z,49.90
2022-11-15T08:52:37.535Z,55.00
2022-11-15T08:55:04.460Z,59.40
2022-11-15T08:57:34.195Z,58.10
2022-11-15T09:00:00.797Z,60.37
2022-11-15T09:02:27.443Z,51.73
2022-11-15T09:04:53.998Z,54.13
2022-11-15T09:07:20.685Z,51.40
2022-11-15T09:09:47.330Z,53.90
2022-11-15T09:12:14.084Z,65.20
2022-11-15T09:14:40.659Z,66.03
2022-11-15T09:17:10.752Z,64.03
2022-11-15T09:19:38.071Z,72.93
2022-11-15T09:22:07.719Z,83.03
2022-11-15T09:24:34.671Z,80.27
2022-11-15T09:27:01.439Z,76.53
2022-11-15T09:29:28.082Z,81.70
2022-11-15T09:31:54.697Z,85.90
2022-11-15T09:34:22.059Z,96.70
2022-11-15T09:36:48.631Z,81.93
2022-11-15T09:39:15.229Z,91.37
2022-11-15T09:41:53.863Z,81.20
2022-11-15T09:44:57.256Z,77.73
2022-11-15T09:47:29.953Z,69.50
2022-11-15T09:49:59.943Z,90.20
2022-11-15T09:52:26.643Z,83.40
2022-11-15T09:54:55.571Z,89.73
2022-11-15T09:57:49.479Z,82.67
2022-11-15T10:00:47.107Z,78.57
2022-11-15T10:03:28.560Z,72.90
2022-11-15T10:05:59.145Z,84.87
2022-11-15T10:09:10.732Z,84.37
2022-11-15T10:11:39.476Z,87.17
2022-11-15T10:14:19.845Z,77.17
2022-11-15T10:17:04.802Z,81.90
2022-11-15T10:19:31.287Z,92.63
2022-11-15T10:22:00.566Z,96.60
2022-11-15T10:24:34.105Z,84.27
2022-11-15T10:27:02.976Z,101.00
2022-11-15T10:29:29.555Z,87.57
2022-11-15T10:31:56.138Z,77.33
2022-11-15T10:34:24.809Z,83.90
2022-11-15T10:36:59.941Z,89.27
2022-11-15T10:39:26.866Z,84.97
2022-11-15T10:41:53.631Z,90.70
2022-11-15T10:44:20.280Z,88.33
2022-11-15T10:46:56.197Z,78.87
2022-11-15T10:49:31.045Z,91.67
2022-11-15T10:52:16.885Z,80.97
2022-11-15T10:54:57.152Z,73.53
2022-11-15T10:57:28.342Z,74.43
2022-11-15T11:00:06.555Z,83.30
2022-11-15T11:02:37.836Z,79.23
2022-11-15T11:05:41.070Z,77.53
2022-11-15T11:08:12.049Z,74.10
2022-11-15T11:10:51.742Z,91.50
2022-11-15T11:13:25.688Z,93.63
2022-11-15T11:16:05.386Z,91.33
2022-11-15T11:18:55.030Z,88.67
2022-11-15T11:21:42.308Z,86.40
2022-11-15T11:24:17.205Z,86.07
2022-11-15T11:27:06.280Z,85.43
2022-11-15T11:29:51.683Z,82.17
2022-11-15T11:32:33.072Z,70.77
2022-11-15T11:35:25.009Z,84.50
2022-11-15T11:37:55.105Z,80.63
2022-11-15T11:40:36.247Z,85.47
2022-11-15T11:43:45.935Z,80.50
2022-11-15T11:46:27.904Z,97.93
2022-11-15T11:49:04.596Z,84.77
2022-11-15T11:51:39.816Z,86.83
2022-11-15T11:54:18.894Z,89.13
2022-11-15T11:56:46.722Z,77.43
2022-11-15T11:59:37.356Z,82.17
2022-11-15T12:02:16.346Z,78.90
2022-11-15T12:04:50.935Z,80.37
2022-11-15T12:07:26.616Z,77.73
2022-11-15T12:10:17.151Z,64.33
2022-11-15T12:21:06.763Z,70.30
2022-11-15T12:23:43.575Z,64.03
2022-11-15T12:26:26.187Z,70.80
2022-11-15T12:29:07.838Z,59.67
2022-11-15T12:31:35.504Z,64.37
2022-11-15T12:34:14.475Z,75.83
2022-11-15T12:36:45.254Z,70.40
2022-11-15T12:39:13.417Z,69.47
2022-11-15T12:41:56.527Z,70.47
2022-11-15T12:44:32.342Z,68.93
2022-11-15T12:46:58.916Z,66.87
2022-11-15T12:49:28.301Z,66.23
2022-11-15T12:51:57.930Z,70.17
2022-11-15T12:54:24.504Z,75.50
2022-11-15T12:57:09.230Z,84.63
2022-11-15T13:00:13.654Z,76.27
2022-11-15T13:02:46.464Z,77.07
2022-11-15T13:05:16.494Z,67.60
2022-11-15T13:07:43.099Z,73.57
2022-11-15T13:10:28.541Z,64.30
2022-11-15T13:13:03.553Z,75.77
2022-11-15T13:16:00.992Z,66.73
2022-11-15T13:18:29.938Z,74.90
2022-11-15T13:21:02.181Z,75.80
2022-11-15T13:23:29.640Z,66.83
2022-11-15T13:26:11.861Z,65.87
2022-11-15T13:28:51.907Z,72.73
2022-11-15T13:31:38.725Z,78.63
2022-11-15T13:34:50.535Z,68.00
2022-11-15T13:37:20.766Z,65.73
2022-11-15T13:39:48.854Z,64.77
2022-11-15T13:42:20.633Z,66.80
2022-11-15T13:44:58.530Z,69.57
2022-11-15T13:47:28.400Z,63.73
2022-11-15T13:49:58.162Z,68.77
2022-11-15T13:52:32.051Z,60.23
2022-11-15T13:55:00.753Z,73.37
2022-11-15T13:57:35.294Z,64.23
2022-11-15T14:00:23.159Z,60.37
2022-11-15T14:02:49.848Z,61.97
2022-11-15T14:05:24.403Z,69.20
2022-11-15T14:08:20.537Z,70.13
2022-11-15T14:10:47.249Z,70.17
2022-11-15T14:13:31.956Z,72.23
2022-11-15T14:16:22.407Z,65.83
2022-11-15T14:18:53.580Z,63.20
2022-11-15T14:21:21.328Z,63.73
2022-11-15T14:23:49.983Z,68.57
2022-11-15T14:26:34.660Z,72.77
2022-11-15T14:29:30.076Z,77.50
2022-11-15T14:32:16.424Z,72.90
2022-11-15T14:34:43.640Z,82.40
2022-11-15T14:37:21.552Z,74.90
2022-11-15T14:39:48.276Z,82.60
2022-11-15T14:42:14.874Z,83.27
2022-11-15T14:44:45.779Z,86.87
2022-11-15T14:47:13.060Z,83.93
2022-11-15T14:49:39.726Z,85.67
2022-11-15T14:52:35.387Z,76.57
2022-11-15T14:55:03.866Z,60.70
2022-11-15T14:57:31.714Z,64.50
2022-11-15T14:59:58.400Z,66.73
2022-11-15T15:02:27.812Z,68.47
2022-11-15T15:04:54.981Z,69.90
2022-11-15T15:07:22.191Z,64.20
2022-11-15T15:09:48.906Z,64.73
2022-11-15T15:12:21.709Z,71.77
2022-11-15T15:14:50.320Z,69.37
2022-11-15T15:17:18.240Z,63.07
2022-11-15T15:19:44.916Z,64.30
2022-11-15T15:22:16.978Z,72.07
2022-11-15T15:24:44.556Z,67.90
2022-11-15T15:27:11.753Z,65.87
2022-11-15T15:29:38.607Z,59.47
2022-11-15T15:32:06.447Z,56.10
2022-11-15T15:34:33.542Z,61.30
2022-11-15T15:37:30.745Z,55.90
2022-11-15T15:39:57.824Z,73.63
2022-11-15T15:42:24.703Z,67.97
2022-11-15T15:44:51.988Z,62.87
2022-11-15T15:47:23.506Z,71.63
2022-11-15T15:49:51.352Z,66.03
2022-11-15T15:52:18.246Z,69.30
2022-11-15T15:54:45.114Z,65.77
2022-11-15T15:57:15.332Z,64.87
2022-11-15T15:59:42.206Z,72.80
2022-11-15T16:02:15.386Z,65.37
2022-11-15T16:04:41.994Z,84.30
2022-11-15T16:07:22.198Z,65.47
2022-11-15T16:10:00.956Z,71.93
2022-11-15T16:12:34.061Z,81.97
2022-11-15T16:15:01.677Z,83.80
2022-11-15T16:17:34.466Z,76.47
2022-11-15T16:20:01.429Z,75.37
2022-11-15T16:22:30.218Z,70.33
2022-11-15T16:24:57.389Z,74.03
2022-11-15T16:27:24.675Z,86.17
2022-11-15T16:29:51.425Z,83.00
2022-11-15T16:32:18.212Z,77.10
2022-11-15T16:34:48.800Z,89.33
2022-11-15T16:37:25.628Z,82.67
2022-11-15T16:39:53.978Z,87.83
2022-11-15T16:42:23.818Z,87.13
2022-11-15T16:44:50.436Z,97.70
2022-11-15T16:47:19.714Z,79.93
2022-11-15T16:49:46.907Z,91.80
2022-11-15T16:52:15.501Z,89.20
2022-11-15T16:54:45.634Z,79.10
2022-11-15T16:57:12.268Z,79.63
2022-11-15T16:59:39.025Z,93.17
2022-11-15T17:02:12.447Z,85.27
2022-11-15T17:04:39.331Z,86.63
2022-11-15T17:07:06.931Z,78.70
2022-11-15T17:09:34.348Z,88.63
2022-11-15T17:12:00.934Z,89.27
2022-11-15T17:14:27.608Z,77.00
2022-11-15T17:16:57.246Z,77.03
2022-11-15T17:19:24.001Z,88.50
2022-11-15T17:21:50.748Z,87.53
2022-11-15T17:24:17.839Z,77.20
2022-11-15T17:26:44.506Z,81.43
2022-11-15T17:29:11.352Z,94.70
2022-11-15T17:31:38.869Z,76.13
2022-11-15T17:34:06.848Z,75.30
2022-11-15T17:36:34.439Z,87.30
2022-11-15T17:39:01.284Z,87.27
2022-11-15T17:41:29.140Z,78.57
2022-11-15T17:44:00.142Z,83.33
2022-11-15T17:46:28.151Z,86.50
2022-11-15T17:48:56.098Z,79.30
2022-11-15T17:51:24.216Z,80.90
2022-11-15T17:53:51.797Z,80.30
2022-11-15T17:56:23.553Z,86.93
2022-11-15T17:58:52.329Z,81.70
2022-11-15T18:01:29.628Z,85.27
2022-11-15T18:03:57.457Z,90.20
2022-11-15T18:06:25.315Z,85.87
2022-11-15T18:08:53.734Z,95.60
2022-11-15T18:11:23.940Z,99.53
2022-11-15T18:13:53.795Z,84.67
2022-11-15T18:16:24.758Z,80.80
2022-11-15T18:18:51.552Z,72.43
2022-11-15T18:21:21.754Z,80.93
2022-11-15T18:23:52.652Z,82.80
2022-11-15T18:26:23.042Z,79.57
2022-11-15T18:28:53.955Z,82.40
2022-11-15T18:31:26.384Z,78.70
2022-11-15T18:33:54.188Z,80.23
2022-11-15T18:36:24.644Z,88.73
2022-11-15T18:38:58.923Z,67.70
2022-11-15T18:41:28.514Z,76.10
2022-11-15T18:43:56.812Z,79.40
2022-11-15T18:46:25.546Z,84.20
2022-11-15T18:48:56.516Z,82.77
2022-11-15T18:51:26.112Z,69.13
2022-11-15T18:53:54.630Z,88.50
2022-11-15T18:56:23.278Z,69.47
2022-11-15T18:58:55.578Z,74.73
2022-11-15T19:01:30.696Z,89.10
2022-11-15T19:04:06.786Z,76.67
2022-11-15T19:06:36.761Z,76.57
2022-11-15T19:09:06.488Z,78.57
2022-11-15T19:11:37.059Z,73.97
2022-11-15T19:14:08.070Z,78.90
2022-11-15T19:16:37.790Z,65.90
2022-11-15T19:19:11.710Z,71.97
2022-11-15T19:21:38.439Z,69.77
2022-11-15T19:24:05.591Z,80.37
2022-11-15T19:26:32.567Z,67.30
2022-11-15T19:29:01.561Z,64.83
2022-11-15T19:31:29.935Z,68.00
2022-11-15T19:34:04.619Z,67.23
2022-11-15T19:36:36.708Z,56.30
2022-11-15T19:39:08.464Z,55.83
2022-11-15T19:41:37.956Z,56.40
2022-11-15T19:44:05.808Z,57.97
2022-11-15T19:46:32.552Z,53.00
2022-11-15T19:48:59.251Z,61.93
2022-11-15T19:51:27.734Z,48.73
2022-11-15T19:53:56.546Z,47.73
2022-11-15T19:56:24.217Z,53.07
2022-11-15T19:58:54.167Z,50.07
2022-11-15T20:01:22.203Z,52.77
2022-11-15T20:03:50.240Z,58.10
2022-11-15T20:06:22.646Z,49.27
2022-11-15T20:08:50.023Z,49.50
2022-11-15T20:11:17.953Z,47.80
2022-11-15T20:13:45.494Z,53.77
2022-11-15T20:16:21.350Z,43.80
2022-11-15T20:18:49.569Z,44.43
2022-11-15T20:21:16.925Z,51.87
2022-11-15T20:23:43.939Z,55.07
2022-11-15T20:26:11.809Z,46.90
2022-11-15T20:28:39.666Z,54.40
2022-11-15T20:31:07.472Z,52.10
2022-11-15T20:33:34.879Z,49.63
2022-11-15T20:36:11.035Z,52.07
2022-11-15T20:38:38.247Z,50.07
2022-11-15T20:41:05.535Z,52.50
2022-11-15T20:43:32.844Z,55.80
2022-11-15T20:45:59.493Z,52.77
2022-11-15T20:48:26.222Z,47.83
2022-11-15T20:51:07.242Z,47.27
2022-11-15T20:53:34.945Z,46.63
2022-11-15T20:56:11.330Z,44.70
2022-11-15T20:58:38.283Z,50.30
2022-11-15T21:01:07.009Z,57.53
2022-11-15T21:03:34.039Z,50.30
2022-11-15T21:06:01.043Z,56.20
2022-11-15T21:08:27.687Z,48.60
2022-11-15T21:11:13.337Z,51.60
2022-11-15T21:13:40.081Z,46.00
2022-11-15T21:16:07.208Z,47.10
2022-11-15T21:18:34.176Z,45.23
2022-11-15T21:21:07.461Z,42.17
2022-11-15T21:23:34.239Z,37.87
2022-11-15T21:26:00.896Z,45.33
2022-11-15T21:28:27.590Z,43.53
2022-11-15T21:30:56.517Z,38.90
2022-11-15T21:33:24.018Z,34.27
2022-11-15T21:35:51.762Z,45.90
2022-11-15T21:38:18.766Z,40.47
2022-11-15T21:40:45.597Z,33.30
2022-11-15T21:43:12.240Z,36.30
2022-11-15T21:45:38.863Z,42.17
2022-11-15T21:48:06.104Z,35.53
2022-11-15T21:50:32.746Z,30.90
2022-11-15T21:52:59.356Z,40.43
2022-11-15T21:55:25.967Z,39.53
2022-11-15T21:57:52.549Z,36.83
2022-11-15T22:00:38.056Z,39.30
2022-11-15T22:03:04.632Z,41.67
2022-11-15T22:05:31.235Z,42.87
2022-11-15T22:07:57.813Z,47.93
2022-11-15T22:10:24.417Z,42.87
2022-11-15T22:12:51.006Z,39.33
2022-11-15T22:15:17.619Z,40.30
2022-11-15T22:17:59.253Z,37.77
2022-11-15T22:20:44.057Z,38.30
2022-11-15T22:23:11.699Z,35.83
2022-11-15T22:25:38.449Z,35.27
2022-11-15T22:28:05.288Z,34.70
2022-11-15T22:30:31.918Z,39.17
2022-11-15T22:32:58.587Z,42.53
2022-11-15T22:35:25.201Z,39.07
2022-11-15T22:37:52.888Z,40.10
2022-11-15T22:40:19.652Z,38.13
2022-11-15T22:42:46.285Z,42.30
2022-11-15T22:45:12.995Z,40.10
2022-11-15T22:47:39.641Z,46.00
2022-11-15T22:50:06.733Z,48.07
2022-11-15T22:52:33.426Z,44.77
2022-11-15T22:55:00.072Z,41.73
2022-11-15T22:57:26.739Z,49.60
2022-11-15T22:59:53.357Z,42.50
2022-11-15T23:02:19.950Z,50.83
2022-11-15T23:04:46.713Z,41.20
2022-11-15T23:07:13.888Z,43.90
2022-11-15T23:09:40.555Z,50.60
2022-11-15T23:12:27.322Z,49.20
2022-11-15T23:14:53.982Z,39.40
2022-11-15T23:17:20.615Z,31.47
2022-11-15T23:19:47.500Z,37.77
2022-11-15T23:22:32.636Z,37.10
2022-11-15T23:24:59.695Z,35.67
2022-11-15T23:27:26.390Z,37.73
2022-11-15T23:30:11.532Z,41.50
2022-11-15T23:32:56.450Z,51.40
2022-11-15T23:35:23.096Z,56.17
2022-11-15T23:37:49.750Z,53.57
2022-11-15T23:40:16.471Z,42.93
2022-11-15T23:42:43.065Z,40.67
2022-11-15T23:45:09.973Z,44.33
2022-11-15T23:47:36.671Z,41.47
2022-11-15T23:50:04.099Z,47.30
2022-11-15T23:52:30.735Z,41.27
2022-11-15T23:54:57.412Z,44.07
2022-11-15T23:57:24.039Z,38.97
2022-11-15T23:59:50.675Z,44.17
